Time;durP1;ratioP1;P1;durP2;ratioP2;P2;SDS_P1;SDS_P2;PMS_P1;PMS_P2;Temp;Humidity;BMP_temperature;BMP_pressure;BME280_temperature;BME280_humidity;BME280_pressure;Samples;Min_cycle;Max_cycle;Signal;HPM_P1;HPM_P2
2022/11/05 00:09:45;;;;;;;;;;;;;;;12.64;63.28;98352.25;4451698;32;34433;-84
2022/11/05 00:17:48;;;;;;;;;;;;;;;13.24;60.98;98340.44;4434488;32;34648;-84
2022/11/05 00:20:16;;;;;;;;;;;;;;;12.97;62.34;98338.97;4450674;32;34325;-84
2022/11/05 00:25:29;;;;;;;;;;;;;;;12.44;63.61;98327.31;4450761;32;33702;-85
2022/11/05 00:27:59;;;;;;;;;;;;;;;12.62;63.63;98333.22;4463431;32;33773;-86
2022/11/05 00:30:27;;;;;;;;;;;;;;;12.96;61.77;98343.31;4449996;32;34894;-84
2022/11/05 00:32:58;;;;;;;;;;;;;;;12.46;63.72;98354.16;4450479;32;33216;-84
2022/11/05 00:35:25;;;;;;;;;;;;;;;11.45;66.98;98358.16;4450389;32;33667;-84
2022/11/05 00:37:52;;;;;;;;;;;;;;;11.88;65.27;98343.28;4451503;32;33847;-86
2022/11/05 00:40:20;;;;;;;;;;;;;;;12.02;64.87;98355.34;4445275;32;35120;-85
2022/11/05 00:45:33;;;;;;;;;;;;;;;12.58;62.65;98362.72;4444311;32;34279;-86
2022/11/05 00:50:46;;;;;;;;;;;;;;;13.15;60.58;98350.03;4449549;32;33821;-84
2022/11/05 00:53:13;;;;;;;;;;;;;;;12.93;60.48;98340.72;4450663;32;33610;-86
2022/11/05 00:55:41;;;;;;;;;;;;;;;12.41;62.69;98336.84;4452191;32;34094;-85
2022/11/05 00:58:11;;;;;;;;;;;;;;;12.32;61.98;98343.88;4464965;32;33960;-84
2022/11/05 01:00:39;;;;;;;;;;;;;;;12.35;63.02;98346.41;4465562;32;34154;-84
2022/11/05 01:03:08;;;;;;;;;;;;;;;11.91;64.16;98348.44;4460904;32;32888;-86
2022/11/05 01:05:40;;;;;;;;;;;;;;;11.99;63.93;98356.19;4446257;32;33387;-85
2022/11/05 01:08:08;;;;;;;;;;;;;;;12.16;63.58;98359.56;4470973;32;34775;-83
2022/11/05 01:10:39;;;;;;;;;;;;;;;12.35;62.60;98344.72;4472788;32;34277;-86
2022/11/05 01:13:06;;;;;;;;;;;;;;;12.18;62.78;98360.41;4472628;32;35115;-86
2022/11/05 01:15:39;;;;;;;;;;;;;;;11.49;65.43;98354.69;4474138;32;33513;-86
2022/11/05 01:18:06;;;;;;;;;;;;;;;11.89;64.19;98355.41;4466304;32;34168;-85
2022/11/05 01:20:33;;;;;;;;;;;;;;;11.18;66.88;98357.41;4466535;32;34392;-84
2022/11/05 01:23:01;;;;;;;;;;;;;;;11.60;65.39;98358.09;4475708;32;34186;-85
2022/11/05 01:25:28;;;;;;;;;;;;;;;11.04;67.09;98355.69;4473212;32;33925;-84
2022/11/05 01:27:55;;;;;;;;;;;;;;;11.03;68.04;98351.38;4452581;32;34069;-86
2022/11/05 01:30:23;;;;;;;;;;;;;;;10.97;68.31;98349.66;4465090;32;34194;-86
2022/11/05 01:32:50;;;;;;;;;;;;;;;11.26;67.13;98346.13;4475401;32;34502;-82
2022/11/05 01:35:17;;;;;;;;;;;;;;;10.95;67.73;98338.44;4474834;32;33510;-85
2022/11/05 01:37:44;;;;;;;;;;;;;;;11.82;65.16;98347.59;4466253;32;34204;-85
2022/11/05 01:40:13;;;;;;;;;;;;;;;11.75;65.60;98353.72;4468439;32;35177;-83
2022/11/05 01:42:40;;;;;;;;;;;;;;;11.08;67.35;98363.47;4474541;32;35027;-84
2022/11/05 01:45:16;;;;;;;;;;;;;;;11.12;67.69;98380.75;4478136;32;33686;-85
2022/11/05 01:48:02;;;;;;;;;;;;;;;11.38;67.08;98383.28;4468156;32;34198;-86
2022/11/05 01:50:30;;;;;;;;;;;;;;;11.75;65.17;98392.66;4468506;32;34129;-86
2022/11/05 01:53:02;;;;;;;;;;;;;;;12.46;63.36;98393.13;4477268;32;35096;-87
2022/11/05 01:55:30;;;;;;;;;;;;;;;12.63;61.67;98379.16;4460059;32;33074;-86
2022/11/05 01:57:57;;;;;;;;;;;;;;;11.78;64.62;98377.94;4454538;32;33969;-85
2022/11/05 02:00:25;;;;;;;;;;;;;;;11.78;64.49;98369.25;4445893;32;34236;-85
2022/11/05 02:02:52;;;;;;;;;;;;;;;12.45;62.87;98362.81;4466440;32;34361;-85
2022/11/05 02:05:20;;;;;;;;;;;;;;;12.11;63.35;98366.50;4468529;32;34271;-86
2022/11/05 02:07:47;;;;;;;;;;;;;;;11.99;64.15;98358.81;4468207;32;34076;-84
2022/11/05 02:10:14;;;;;;;;;;;;;;;10.68;68.06;98384.28;4457144;32;34254;-85
2022/11/05 02:12:42;;;;;;;;;;;;;;;11.57;65.15;98384.06;4467188;32;34226;-84
2022/11/05 02:15:14;;;;;;;;;;;;;;;11.33;65.28;98373.78;4438852;32;33793;-84
2022/11/05 02:18:01;;;;;;;;;;;;;;;11.20;66.46;98389.38;4445915;32;33613;-84
2022/11/05 02:20:28;;;;;;;;;;;;;;;10.29;69.95;98389.41;4460333;32;34646;-84
2022/11/05 02:22:55;;;;;;;;;;;;;;;10.82;67.93;98380.78;4465938;32;34466;-83
2022/11/05 02:25:35;;;;;;;;;;;;;;;10.72;67.75;98385.13;4467353;32;34335;-84
2022/11/05 02:28:41;;;;;;;;;;;;;;;10.34;70.21;98382.50;4469713;32;34176;-86
2022/11/05 02:31:22;;;;;;;;;;;;;;;10.77;68.58;98385.97;4406131;32;33851;-86
2022/11/05 02:33:55;;;;;;;;;;;;;;;10.60;69.03;98385.97;4403043;32;34034;-85
2022/11/05 02:36:29;;;;;;;;;;;;;;;10.78;68.21;98392.87;4443481;32;33579;-85
2022/11/05 02:39:25;;;;;;;;;;;;;;;10.75;67.97;98394.63;4468015;32;34035;-85
2022/11/05 02:41:55;;;;;;;;;;;;;;;10.55;69.32;98389.44;4444587;32;34671;-85
2022/11/05 02:44:33;;;;;;;;;;;;;;;10.33;68.98;98380.78;4452559;32;34482;-84
2022/11/05 02:47:04;;;;;;;;;;;;;;;10.34;69.78;98387.69;4455655;32;34056;-87
2022/11/05 02:49:37;;;;;;;;;;;;;;;11.39;66.41;98390.19;4448684;32;34092;-86
2022/11/05 02:52:05;;;;;;;;;;;;;;;10.01;70.60;98389.34;4442553;32;34280;-85
2022/11/05 02:54:33;;;;;;;;;;;;;;;10.57;68.60;98408.44;4448712;32;35166;-85
2022/11/05 02:57:01;;;;;;;;;;;;;;;10.99;67.18;98379.06;4468547;32;33061;-86
2022/11/05 02:59:31;;;;;;;;;;;;;;;10.61;68.78;98392.91;4465267;32;33433;-85
2022/11/05 03:01:59;;;;;;;;;;;;;;;10.57;68.58;98398.97;4467814;32;34378;-86
2022/11/05 03:04:26;;;;;;;;;;;;;;;10.91;67.56;98401.50;4458375;32;34377;-85
2022/11/05 03:06:56;;;;;;;;;;;;;;;11.00;66.86;98390.28;4453020;32;34242;-85
2022/11/05 03:09:30;;;;;;;;;;;;;;;9.99;70.47;98393.63;4467300;32;34975;-86
2022/11/05 03:12:02;;;;;;;;;;;;;;;10.69;67.97;98393.75;4450344;32;33302;-86
2022/11/05 03:14:29;;;;;;;;;;;;;;;10.11;69.84;98401.44;4440026;32;35008;-88
2022/11/05 03:17:03;;;;;;;;;;;;;;;9.94;70.92;98401.41;4467668;32;33641;-84
2022/11/05 03:19:48;;;;;;;;;;;;;;;10.58;68.46;98395.50;4467645;32;34045;-87
2022/11/05 03:22:25;;;;;;;;;;;;;;;11.35;66.45;98398.84;4458480;32;35126;-85
2022/11/05 03:25:11;;;;;;;;;;;;;;;10.17;69.34;98405.78;4446901;32;35142;-86
2022/11/05 03:27:40;;;;;;;;;;;;;;;10.81;67.47;98402.41;4472539;32;34358;-87
2022/11/05 03:30:08;;;;;;;;;;;;;;;10.89;67.18;98418.81;4462936;32;33550;-86
2022/11/05 03:32:36;;;;;;;;;;;;;;;11.83;64.38;98412.56;4452607;32;33862;-85
2022/11/05 03:35:11;;;;;;;;;;;;;;;12.29;62.72;98416.66;4455742;32;34039;-86
2022/11/05 03:37:39;;;;;;;;;;;;;;;10.61;67.68;98416.22;4453395;32;33348;-86
2022/11/05 03:40:07;;;;;;;;;;;;;;;10.26;68.89;98423.06;4453516;32;34680;-86
2022/11/05 03:42:34;;;;;;;;;;;;;;;10.43;68.24;98418.81;4448823;32;34266;-86
2022/11/05 03:45:05;;;;;;;;;;;;;;;10.05;70.11;98422.16;4454126;32;34094;-87
2022/11/05 03:47:33;;;;;;;;;;;;;;;11.04;66.80;98423.13;4453250;32;34416;-85
2022/11/05 03:50:07;;;;;;;;;;;;;;;10.32;68.40;98431.75;4453219;32;34218;-85
2022/11/05 03:52:35;;;;;;;;;;;;;;;10.55;68.44;98434.34;4449695;32;33717;-86
2022/11/05 03:55:03;;;;;;;;;;;;;;;11.18;65.91;98414.47;4456877;32;34191;-85
2022/11/05 03:57:31;;;;;;;;;;;;;;;10.24;68.98;98429.09;4466535;32;33702;-87
2022/11/05 03:59:58;;;;;;;;;;;;;;;10.33;68.42;98432.59;4467375;32;34737;-87
2022/11/05 04:02:26;;;;;;;;;;;;;;;10.49;67.43;98434.34;4458105;32;34551;-84
2022/11/05 04:04:53;;;;;;;;;;;;;;;11.22;65.77;98437.81;4452737;32;36083;-86
2022/11/05 04:18:25;;;;;;;;;;;;;;;10.56;66.99;98417.94;4461556;32;34304;-84
2022/11/05 04:26:25;;;;;;;;;;;;;;;10.86;65.98;98424.88;4451912;32;35028;-84
2022/11/05 04:31:38;;;;;;;;;;;;;;;12.20;61.97;98416.69;4482727;32;34976;-84
2022/11/05 04:34:05;;;;;;;;;;;;;;;10.87;65.87;98420.53;4472216;32;34949;-85
2022/11/05 04:36:32;;;;;;;;;;;;;;;10.82;66.07;98417.09;4467090;32;35121;-86
2022/11/05 04:39:00;;;;;;;;;;;;;;;10.86;66.34;98403.25;4468405;32;33570;-86
2022/11/05 04:41:27;;;;;;;;;;;;;;;10.55;67.47;98400.66;4482877;32;34144;-87
2022/11/05 04:43:54;;;;;;;;;;;;;;;11.48;64.24;98397.09;4482994;32;34237;-86
2022/11/05 04:46:21;;;;;;;;;;;;;;;12.00;61.34;98399.47;4482865;32;33985;-86
2022/11/05 04:48:49;;;;;;;;;;;;;;;10.95;65.27;98411.06;4460278;32;33416;-84
2022/11/05 04:51:16;;;;;;;;;;;;;;;10.34;67.94;98414.47;4466897;32;34137;-82
2022/11/05 04:53:43;;;;;;;;;;;;;;;11.29;64.45;98413.56;4467509;32;35201;-85
2022/11/05 04:56:11;;;;;;;;;;;;;;;11.25;64.64;98411.84;4465611;32;35138;-86
2022/11/05 04:58:39;;;;;;;;;;;;;;;10.79;65.57;98411.91;4468069;32;33146;-88
2022/11/05 05:01:17;;;;;;;;;;;;;;;10.18;68.14;98416.13;4482556;32;33633;-84
2022/11/05 05:03:47;;;;;;;;;;;;;;;10.50;67.18;98414.50;4473986;32;34279;-87
2022/11/05 05:06:15;;;;;;;;;;;;;;;10.42;67.04;98401.53;4463665;32;34215;-87
2022/11/05 05:08:42;;;;;;;;;;;;;;;11.22;65.17;98401.50;4466919;32;33341;-84
2022/11/05 05:11:10;;;;;;;;;;;;;;;11.11;64.83;98394.59;4466992;32;34005;-85
2022/11/05 05:13:37;;;;;;;;;;;;;;;10.74;66.71;98396.34;4468106;32;33972;-85
2022/11/05 05:16:06;;;;;;;;;;;;;;;10.66;66.92;98396.34;4466657;32;34143;-86
2022/11/05 05:18:33;;;;;;;;;;;;;;;10.77;66.20;98396.34;4487557;32;34242;-86
2022/11/05 05:23:47;;;;;;;;;;;;;;;10.65;66.15;98406.72;4470448;32;37096;-86
2022/11/05 05:26:15;;;;;;;;;;;;;;;11.03;65.23;98417.09;4472972;32;34051;-86
2022/11/05 05:28:42;;;;;;;;;;;;;;;11.40;63.97;98410.09;4458698;32;33928;-84
2022/11/05 05:31:09;;;;;;;;;;;;;;;11.72;62.67;98413.44;4468903;32;34113;-85
2022/11/05 05:33:36;;;;;;;;;;;;;;;10.93;64.28;98417.94;4462183;32;33976;-87
2022/11/05 05:36:04;;;;;;;;;;;;;;;11.32;63.60;98416.16;4467178;32;34293;-87
2022/11/05 05:38:37;;;;;;;;;;;;;;;10.66;65.95;98426.59;4471784;32;34492;-86
2022/11/05 05:41:04;;;;;;;;;;;;;;;10.97;65.38;98422.25;4472050;32;33759;-86
2022/11/05 05:43:32;;;;;;;;;;;;;;;10.37;67.07;98427.41;4466442;32;33988;-87
2022/11/05 05:46:00;;;;;;;;;;;;;;;10.32;67.29;98428.28;4448434;32;34428;-85
2022/11/05 05:48:27;;;;;;;;;;;;;;;10.91;64.99;98433.53;4471744;32;33429;-85
2022/11/05 05:50:58;;;;;;;;;;;;;;;11.18;65.02;98435.22;4460751;32;33886;-86
2022/11/05 05:53:25;;;;;;;;;;;;;;;10.87;65.07;98451.66;4460361;32;33687;-87
2022/11/05 05:55:53;;;;;;;;;;;;;;;10.81;65.76;98459.44;4471250;32;33503;-87
2022/11/05 05:58:21;;;;;;;;;;;;;;;10.89;65.17;98457.72;4466420;32;33711;-85
2022/11/05 06:00:48;;;;;;;;;;;;;;;10.74;66.10;98470.69;4455060;32;34526;-86
2022/11/05 06:03:16;;;;;;;;;;;;;;;10.25;67.34;98479.22;4462381;32;35236;-86
2022/11/05 06:05:43;;;;;;;;;;;;;;;11.22;64.29;98479.34;4469668;32;34410;-87
2022/11/05 06:08:10;;;;;;;;;;;;;;;11.05;64.11;98489.69;4457297;32;34105;-86
2022/11/05 06:10:37;;;;;;;;;;;;;;;10.19;67.28;98482.63;4459375;32;33720;-85
2022/11/05 06:13:04;;;;;;;;;;;;;;;11.11;64.88;98494.91;4466509;32;35179;-87
2022/11/05 06:15:31;;;;;;;;;;;;;;;11.73;62.53;98490.47;4469556;32;35153;-86
2022/11/05 06:18:02;;;;;;;;;;;;;;;10.93;64.60;98500.94;4479796;32;34165;-85
2022/11/05 06:20:29;;;;;;;;;;;;;;;11.57;63.39;98500.91;4478660;32;34876;-87
2022/11/05 06:22:56;;;;;;;;;;;;;;;10.75;65.42;98506.09;4478861;32;35132;-85
2022/11/05 06:25:24;;;;;;;;;;;;;;;10.62;65.70;98519.03;4459536;32;34451;-86
2022/11/05 06:27:51;;;;;;;;;;;;;;;10.82;65.64;98521.66;4473063;32;33517;-87
2022/11/05 06:30:20;;;;;;;;;;;;;;;10.64;65.43;98524.22;4460920;32;33799;-85
2022/11/05 06:32:47;;;;;;;;;;;;;;;11.00;64.94;98531.19;4457406;32;34062;-86
2022/11/05 06:35:15;;;;;;;;;;;;;;;11.89;61.79;98516.44;4469135;32;34913;-87
2022/11/05 06:37:42;;;;;;;;;;;;;;;11.57;63.10;98521.66;4468025;32;34355;-85
2022/11/05 06:40:09;;;;;;;;;;;;;;;12.70;59.73;98517.81;4467494;32;33661;-84
2022/11/05 06:42:36;;;;;;;;;;;;;;;11.58;62.64;98525.97;4468223;32;35169;-87
2022/11/05 06:45:04;;;;;;;;;;;;;;;11.83;62.63;98520.75;4467900;32;34199;-86
2022/11/05 06:47:31;;;;;;;;;;;;;;;11.40;63.76;98531.19;4453927;32;34860;-86
2022/11/05 06:49:58;;;;;;;;;;;;;;;11.21;63.54;98538.13;4453773;32;34941;-84
2022/11/05 06:52:26;;;;;;;;;;;;;;;12.00;62.34;98534.56;4460557;32;35178;-86
2022/11/05 06:54:53;;;;;;;;;;;;;;;11.22;63.95;98551.97;4460681;32;34799;-85
2022/11/05 06:57:20;;;;;;;;;;;;;;;10.58;65.75;98537.19;4460841;32;33956;-86
2022/11/05 06:59:47;;;;;;;;;;;;;;;10.70;65.70;98548.44;4452222;32;34669;-86
2022/11/05 07:02:16;;;;;;;;;;;;;;;11.30;64.08;98558.03;4465742;32;33910;-86
2022/11/05 07:04:44;;;;;;;;;;;;;;;11.39;63.40;98564.06;4460645;32;34076;-86
2022/11/05 07:07:11;;;;;;;;;;;;;;;11.58;63.80;98556.28;4463695;32;33654;-86
2022/11/05 07:09:41;;;;;;;;;;;;;;;11.38;63.92;98551.09;4462222;32;34083;-85
2022/11/05 07:12:09;;;;;;;;;;;;;;;11.91;62.18;98570.97;4456476;32;34363;-86
2022/11/05 07:14:36;;;;;;;;;;;;;;;11.88;62.25;98566.63;4458399;32;33866;-84
2022/11/05 07:17:03;;;;;;;;;;;;;;;10.82;65.55;98572.66;4458199;32;32834;-85
2022/11/05 07:19:30;;;;;;;;;;;;;;;11.59;63.44;98566.69;4454199;32;33806;-84
2022/11/05 07:21:57;;;;;;;;;;;;;;;12.33;61.31;98569.97;4451627;32;35083;-85
2022/11/05 07:24:25;;;;;;;;;;;;;;;11.36;64.14;98576.19;4462016;32;34731;-89
2022/11/05 07:26:52;;;;;;;;;;;;;;;11.68;63.61;98571.84;4463837;32;34280;-88
2022/11/05 07:29:19;;;;;;;;;;;;;;;11.05;63.93;98577.88;4459584;32;35398;-87
2022/11/05 07:31:47;;;;;;;;;;;;;;;10.90;66.35;98577.00;4450715;32;33951;-85
2022/11/05 07:34:14;;;;;;;;;;;;;;;11.31;64.81;98577.91;4452550;32;34815;-85
2022/11/05 07:36:41;;;;;;;;;;;;;;;11.25;64.95;98585.69;4457413;32;33600;-86
2022/11/05 07:39:09;;;;;;;;;;;;;;;10.86;65.86;98566.63;4458305;32;33976;-85
2022/11/05 07:41:36;;;;;;;;;;;;;;;12.11;62.20;98570.91;4462261;32;34788;-86
2022/11/05 07:44:03;;;;;;;;;;;;;;;12.02;63.26;98569.22;4460328;32;34152;-86
2022/11/05 07:46:31;;;;;;;;;;;;;;;12.01;62.39;98569.19;4454795;32;34099;-87
2022/11/05 07:48:58;;;;;;;;;;;;;;;12.12;61.01;98559.66;4463240;32;33634;-85
2022/11/05 07:51:25;;;;;;;;;;;;;;;12.76;60.05;98563.69;4467504;32;34118;-86
2022/11/05 07:53:52;;;;;;;;;;;;;;;11.97;62.17;98575.28;4467287;32;34307;-86
2022/11/05 07:56:20;;;;;;;;;;;;;;;12.25;61.75;98576.09;4467668;32;33593;-86
2022/11/05 07:58:47;;;;;;;;;;;;;;;12.42;61.02;98576.88;4467724;32;34923;-86
2022/11/05 08:01:14;;;;;;;;;;;;;;;12.56;60.01;98567.28;4461633;32;34287;-86
2022/11/05 08:03:42;;;;;;;;;;;;;;;12.82;59.57;98574.09;4461467;32;33961;-85
2022/11/05 08:06:09;;;;;;;;;;;;;;;12.32;61.63;98564.78;4466632;32;34262;-86
2022/11/05 08:08:36;;;;;;;;;;;;;;;12.06;61.22;98563.13;4465723;32;34011;-85
2022/11/05 08:11:04;;;;;;;;;;;;;;;12.77;59.73;98560.25;4467189;32;34413;-84
2022/11/05 08:13:32;;;;;;;;;;;;;;;11.96;61.87;98558.84;4452736;32;34107;-86
2022/11/05 08:16:00;;;;;;;;;;;;;;;12.36;60.79;98561.31;4467681;32;33371;-85
2022/11/05 08:18:30;;;;;;;;;;;;;;;12.28;60.78;98565.69;4453214;32;34193;-85
2022/11/05 08:20:58;;;;;;;;;;;;;;;12.76;59.92;98548.94;4463225;32;33996;-86
2022/11/05 08:23:26;;;;;;;;;;;;;;;12.24;61.21;98543.19;4451832;32;34520;-84
2022/11/05 08:25:53;;;;;;;;;;;;;;;12.66;59.75;98537.75;4455566;32;33282;-85
2022/11/05 08:28:21;;;;;;;;;;;;;;;12.18;61.08;98550.09;4452164;32;34780;-86
2022/11/05 08:30:49;;;;;;;;;;;;;;;12.45;60.96;98548.25;4465753;32;34403;-84
2022/11/05 08:33:16;;;;;;;;;;;;;;;12.70;59.31;98549.00;4451071;32;33281;-85
2022/11/05 08:35:43;;;;;;;;;;;;;;;12.59;60.27;98550.81;4465342;32;33387;-85
2022/11/05 08:38:14;;;;;;;;;;;;;;;12.85;59.94;98564.53;4466897;32;35004;-86
2022/11/05 08:40:42;;;;;;;;;;;;;;;11.64;62.31;98564.94;4452692;32;34382;-88
2022/11/05 08:43:09;;;;;;;;;;;;;;;12.79;60.53;98558.47;4463925;32;33842;-86
2022/11/05 08:45:37;;;;;;;;;;;;;;;12.62;60.42;98554.25;4452593;32;33386;-89
2022/11/05 08:48:06;;;;;;;;;;;;;;;12.03;63.42;98555.34;4438727;32;34323;-87
2022/11/05 08:50:33;;;;;;;;;;;;;;;12.31;61.19;98558.75;4452071;32;32962;-86
2022/11/05 08:53:00;;;;;;;;;;;;;;;12.46;60.68;98569.91;4466148;32;34147;-86
2022/11/05 08:55:28;;;;;;;;;;;;;;;12.31;61.44;98560.44;4452241;32;33612;-86
2022/11/05 08:57:56;;;;;;;;;;;;;;;12.43;61.05;98570.81;4467090;32;34947;-86
2022/11/05 09:00:24;;;;;;;;;;;;;;;12.74;60.77;98575.87;4452920;32;35169;-84
2022/11/05 09:02:51;;;;;;;;;;;;;;;11.85;62.25;98579.62;4465894;32;35163;-84
2022/11/05 09:05:19;;;;;;;;;;;;;;;12.41;60.09;98585.53;4466375;32;34489;-85
2022/11/05 09:07:46;;;;;;;;;;;;;;;12.26;61.19;98588.19;4466850;32;33951;-84
2022/11/05 09:10:13;;;;;;;;;;;;;;;12.12;62.40;98581.31;4466467;32;34758;-84
2022/11/05 09:12:40;;;;;;;;;;;;;;;12.72;60.00;98580.19;4466832;32;34839;-83
2022/11/05 09:15:08;;;;;;;;;;;;;;;13.31;58.76;98579.00;4465316;32;34500;-83
2022/11/05 09:17:35;;;;;;;;;;;;;;;12.24;61.76;98592.56;4465844;32;34792;-84
2022/11/05 09:20:03;;;;;;;;;;;;;;;13.06;59.20;98606.87;4465745;32;34895;-84
2022/11/05 09:22:30;;;;;;;;;;;;;;;13.69;56.60;98590.84;4450711;32;34532;-84
2022/11/05 09:24:57;;;;;;;;;;;;;;;12.74;60.36;98597.53;4461070;32;34391;-84
2022/11/05 09:27:25;;;;;;;;;;;;;;;13.08;60.18;98606.00;4465699;32;34980;-83
2022/11/05 09:29:52;;;;;;;;;;;;;;;13.04;59.22;98600.84;4466441;32;34389;-84
2022/11/05 09:32:20;;;;;;;;;;;;;;;12.62;60.34;98608.88;4455967;32;34409;-84
2022/11/05 09:34:48;;;;;;;;;;;;;;;12.92;59.57;98606.97;4461665;32;33646;-84
2022/11/05 09:37:16;;;;;;;;;;;;;;;12.71;59.70;98617.50;4449570;32;34571;-84
2022/11/05 09:39:43;;;;;;;;;;;;;;;13.43;57.83;98594.50;4458946;32;34373;-83
2022/11/05 09:42:10;;;;;;;;;;;;;;;13.14;59.59;98605.09;4464788;32;35029;-84
2022/11/05 09:45:10;;;;;;;;;;;;;;;12.97;58.68;98596.53;4443104;32;33435;-84
2022/11/05 09:47:39;;;;;;;;;;;;;;;12.58;60.08;98588.94;4433016;32;34176;-85
2022/11/05 09:50:08;;;;;;;;;;;;;;;13.42;57.92;98592.78;4440644;32;33747;-85
2022/11/05 09:52:35;;;;;;;;;;;;;;;13.24;59.80;98590.31;4465119;32;34471;-85
2022/11/05 09:55:03;;;;;;;;;;;;;;;13.21;58.87;98593.75;4466411;32;33610;-86
2022/11/05 09:57:40;;;;;;;;;;;;;;;12.41;61.86;98602.00;4464528;32;35025;-84
2022/11/05 10:00:15;;;;;;;;;;;;;;;12.51;61.06;98604.59;4453088;32;34332;-83
2022/11/05 10:02:48;;;;;;;;;;;;;;;12.84;60.26;98598.34;4453641;32;35037;-84
2022/11/05 10:05:17;;;;;;;;;;;;;;;13.87;57.80;98604.56;4468236;32;34436;-84
2022/11/05 10:07:54;;;;;;;;;;;;;;;13.55;57.88;98593.53;4468316;32;33959;-86
2022/11/05 10:10:27;;;;;;;;;;;;;;;13.23;59.09;98583.37;4438580;32;34371;-83
2022/11/05 10:12:56;;;;;;;;;;;;;;;13.27;58.85;98582.50;4458935;32;34575;-84
2022/11/05 10:15:33;;;;;;;;;;;;;;;13.37;59.01;98590.22;4470890;32;33712;-85
2022/11/05 10:18:02;;;;;;;;;;;;;;;13.02;59.38;98581.75;4467479;32;34949;-84
2022/11/05 10:20:32;;;;;;;;;;;;;;;12.98;59.70;98588.72;4453315;32;33759;-83
2022/11/05 10:23:11;;;;;;;;;;;;;;;13.41;58.83;98590.19;4462600;32;33983;-85
2022/11/05 10:25:40;;;;;;;;;;;;;;;13.01;58.70;98596.50;4466307;32;33742;-85
2022/11/05 10:28:08;;;;;;;;;;;;;;;12.57;60.84;98589.78;4467521;32;34309;-84
2022/11/05 10:30:35;;;;;;;;;;;;;;;13.24;59.38;98577.31;4453651;32;35190;-85
2022/11/05 10:33:04;;;;;;;;;;;;;;;13.34;57.96;98590.25;4477971;32;35155;-84
2022/11/05 10:35:32;;;;;;;;;;;;;;;12.98;59.79;98580.91;4454680;32;33685;-84
2022/11/05 10:37:59;;;;;;;;;;;;;;;12.99;59.78;98577.44;4452257;32;35112;-84
2022/11/05 10:40:26;;;;;;;;;;;;;;;13.00;60.21;98581.78;4445071;32;34106;-84
2022/11/05 10:43:04;;;;;;;;;;;;;;;12.85;60.08;98587.06;4476333;32;34637;-85
2022/11/05 10:45:41;;;;;;;;;;;;;;;12.21;62.17;98595.16;4454624;32;33298;-86
2022/11/05 10:48:23;;;;;;;;;;;;;;;12.67;60.53;98601.03;4467886;32;34167;-88
2022/11/05 10:50:50;;;;;;;;;;;;;;;13.61;58.73;98603.94;4453762;32;34925;-88
2022/11/05 10:53:38;;;;;;;;;;;;;;;13.31;58.26;98595.47;4467271;32;34094;-86
2022/11/05 10:56:25;;;;;;;;;;;;;;;13.71;58.12;98602.94;4458041;32;34029;-87
2022/11/05 10:58:55;;;;;;;;;;;;;;;13.71;57.78;98599.47;4452896;32;33551;-85
2022/11/05 11:01:23;;;;;;;;;;;;;;;14.30;55.87;98601.50;4470345;32;35328;-85
2022/11/05 11:04:02;;;;;;;;;;;;;;;13.64;57.77;98609.13;4469001;32;33971;-86
2022/11/05 11:06:30;;;;;;;;;;;;;;;13.79;57.61;98615.94;4457087;32;34564;-85
2022/11/05 11:08:59;;;;;;;;;;;;;;;14.23;55.59;98610.25;4454374;32;34626;-85
2022/11/05 11:11:27;;;;;;;;;;;;;;;13.77;57.34;98595.09;4467255;32;34209;-86
2022/11/05 11:14:01;;;;;;;;;;;;;;;13.34;58.37;98599.81;4468182;32;33971;-85
2022/11/05 11:16:30;;;;;;;;;;;;;;;12.94;60.00;98601.75;4467846;32;34069;-87
2022/11/05 11:19:02;;;;;;;;;;;;;;;13.27;59.46;98603.31;4468118;32;34844;-80
2022/11/05 11:21:30;;;;;;;;;;;;;;;13.35;58.56;98588.50;4483918;32;34484;-85
2022/11/05 11:24:05;;;;;;;;;;;;;;;13.68;58.50;98589.13;4469512;32;34475;-85
2022/11/05 11:26:36;;;;;;;;;;;;;;;13.63;58.11;98600.41;4469616;32;34361;-86
2022/11/05 11:29:03;;;;;;;;;;;;;;;13.52;58.31;98598.78;4453429;32;34255;-85
2022/11/05 11:31:30;;;;;;;;;;;;;;;14.59;55.93;98598.56;4451784;32;34506;-85
2022/11/05 11:34:02;;;;;;;;;;;;;;;13.60;58.14;98597.00;4438294;32;35307;-85
2022/11/05 11:36:34;;;;;;;;;;;;;;;13.68;58.52;98602.12;4438402;32;33582;-84
2022/11/05 11:39:03;;;;;;;;;;;;;;;13.68;58.04;98589.97;4466762;32;34808;-86
2022/11/05 11:41:32;;;;;;;;;;;;;;;13.68;58.21;98586.50;4453748;32;34371;-84
2022/11/05 11:44:01;;;;;;;;;;;;;;;13.66;58.71;98578.69;4461257;32;34397;-84
2022/11/05 11:46:30;;;;;;;;;;;;;;;13.23;60.07;98596.38;4462122;32;34438;-85
2022/11/05 11:48:57;;;;;;;;;;;;;;;13.28;60.03;98592.88;4438493;32;34760;-86
2022/11/05 11:51:24;;;;;;;;;;;;;;;13.66;59.21;98593.47;4462945;32;34993;-86
2022/11/05 11:53:54;;;;;;;;;;;;;;;14.17;56.80;98576.44;4465562;32;35086;-85
2022/11/05 11:56:21;;;;;;;;;;;;;;;13.97;57.53;98589.66;4467379;32;34127;-84
2022/11/05 11:58:51;;;;;;;;;;;;;;;13.77;58.08;98599.44;4448092;32;33835;-87
2022/11/05 12:01:37;;;;;;;;;;;;;;;13.74;58.17;98602.06;4449892;32;35260;-86
2022/11/05 12:04:20;;;;;;;;;;;;;;;13.82;58.95;98603.72;4447390;32;34515;-87
2022/11/05 12:06:47;;;;;;;;;;;;;;;14.49;57.17;98599.56;4449611;32;33657;-88
2022/11/05 12:09:24;;;;;;;;;;;;;;;14.30;56.63;98600.63;4451018;32;33998;-87
2022/11/05 12:11:51;;;;;;;;;;;;;;;14.58;56.75;98585.53;4424172;32;35139;-87
2022/11/05 12:14:37;;;;;;;;;;;;;;;14.65;55.54;98592.41;4441432;32;34330;-84
2022/11/05 12:17:21;;;;;;;;;;;;;;;14.48;56.03;98605.63;4435270;32;33635;-84
2022/11/05 12:20:04;;;;;;;;;;;;;;;14.12;57.08;98617.31;4437583;32;34917;-86
2022/11/05 12:22:35;;;;;;;;;;;;;;;14.28;57.62;98628.44;4448877;32;33945;-86
2022/11/05 12:25:29;;;;;;;;;;;;;;;14.52;56.47;98629.97;4443920;32;35727;-85
2022/11/05 12:28:11;;;;;;;;;;;;;;;14.28;56.22;98631.06;4448632;32;34258;-86
2022/11/05 12:30:41;;;;;;;;;;;;;;;15.04;55.50;98638.00;4450875;32;34233;-88
2022/11/05 12:33:13;;;;;;;;;;;;;;;14.22;57.10;98633.75;4433655;32;35195;-85
2022/11/05 12:35:48;;;;;;;;;;;;;;;14.44;57.49;98634.38;4435786;32;34265;-87
2022/11/05 12:38:44;;;;;;;;;;;;;;;14.39;57.30;98629.19;4438421;32;33694;-87
2022/11/05 12:41:11;;;;;;;;;;;;;;;14.71;56.35;98630.63;4437926;32;34997;-87
2022/11/05 12:43:55;;;;;;;;;;;;;;;14.26;57.52;98636.31;4443787;32;34224;-85
2022/11/05 12:46:26;;;;;;;;;;;;;;;15.00;55.68;98630.22;4435971;32;34314;-87
2022/11/05 12:48:59;;;;;;;;;;;;;;;15.03;55.12;98644.09;4451187;32;33541;-87
2022/11/05 12:51:29;;;;;;;;;;;;;;;15.17;55.16;98643.91;4450335;32;34993;-87
2022/11/05 12:53:59;;;;;;;;;;;;;;;15.74;53.17;98640.47;4445895;32;34786;-86
2022/11/05 12:56:39;;;;;;;;;;;;;;;15.76;52.90;98654.38;4431455;32;34717;-87
2022/11/05 12:59:18;;;;;;;;;;;;;;;14.91;55.67;98667.75;4455841;32;32975;-87
2022/11/05 13:01:48;;;;;;;;;;;;;;;16.14;52.07;98665.91;4446794;32;35045;-87
2022/11/05 13:04:34;;;;;;;;;;;;;;;16.62;50.67;98661.53;4465038;32;34371;-85
2022/11/05 13:07:02;;;;;;;;;;;;;;;16.14;51.84;98652.84;4464375;32;34365;-86
2022/11/05 13:09:32;;;;;;;;;;;;;;;15.01;55.77;98661.53;4457463;32;32964;-84
2022/11/05 13:12:03;;;;;;;;;;;;;;;15.65;53.44;98657.16;4454702;32;34915;-86
2022/11/05 13:14:39;;;;;;;;;;;;;;;14.28;57.63;98658.03;4441257;32;34312;-86
2022/11/05 13:17:11;;;;;;;;;;;;;;;14.81;56.43;98666.13;4437234;32;34542;-87
2022/11/05 13:19:42;;;;;;;;;;;;;;;14.75;56.88;98666.22;4451807;32;34483;-86
2022/11/05 13:22:15;;;;;;;;;;;;;;;15.16;55.77;98662.22;4465034;32;33986;-85
2022/11/05 13:24:46;;;;;;;;;;;;;;;15.40;54.29;98672.31;4448099;32;34136;-88
2022/11/05 13:27:32;;;;;;;;;;;;;;;15.57;53.37;98680.78;4447829;32;34251;-85
2022/11/05 13:30:04;;;;;;;;;;;;;;;15.15;54.96;98681.34;4466407;32;33073;-86
2022/11/05 13:32:34;;;;;;;;;;;;;;;14.69;56.48;98681.94;4447976;32;33902;-86
2022/11/05 13:35:02;;;;;;;;;;;;;;;14.86;55.78;98674.78;4452416;32;34793;-86
2022/11/05 13:40:18;;;;;;;;;;;;;;;15.45;54.14;98673.09;4453197;32;33570;-85
2022/11/05 13:42:51;;;;;;;;;;;;;;;14.97;55.29;98683.34;4443229;32;32802;-91
2022/11/05 13:45:21;;;;;;;;;;;;;;;14.86;54.86;98669.56;4470018;32;35173;-86
2022/11/05 13:48:09;;;;;;;;;;;;;;;14.50;56.25;98670.84;4447848;32;34550;-85
2022/11/05 13:50:55;;;;;;;;;;;;;;;14.46;56.86;98672.59;4450517;32;34394;-86